Isla Verde, Argentina
Current Conditions -  °F | °C
As of 8:00 PM on Friday 28 Nov 2014 (Local Time) from SAOC Reporting Station
Scattered Clouds Scattered Clouds  
Wind Chill: 82°   Ceiling: Unl
Heat Index: 82°   Visibility: 6mi
Dew Point: 45°   Wind: 25mph
Humidity: 26%   Direction: 360°N
Pressure: 29.68"   Gusts: NA
Location:  36.24°S, 62.51°W
Report Text: SAOC 282300Z 36022KT 9999 FEW025 SCT10028/07 Q1005
Loading
Personal Weather Stations






























Interactive Weather Map New forecast layout! Learn more

10-Day Weather Forecast

Advertisements
Track Severe Weather on mobile